Time;durP1;ratioP1;P1;durP2;ratioP2;P2;SDS_P1;SDS_P2;PMS_P1;PMS_P2;Temp;Humidity;BMP_temperature;BMP_pressure;BME280_temperature;BME280_humidity;BME280_pressure;Samples;Min_cycle;Max_cycle;Signal;HPM_P1;HPM_P2
2023/12/19 00:01:47;;;;;;;35.45;25.77;;;1.00;99.90;;;;;;7378280;19;20035;-70
2023/12/19 00:04:19;;;;;;;37.30;26.70;;;1.10;99.90;;;;;;7377281;19;20030;-68
2023/12/19 00:06:49;;;;;;;41.45;26.40;;;1.00;99.90;;;;;;7377125;19;20035;-68
2023/12/19 00:09:21;;;;;;;35.90;25.45;;;1.00;99.90;;;;;;7378280;19;20018;-68
2023/12/19 00:11:51;;;;;;;38.15;26.50;;;1.10;99.90;;;;;;7373381;19;20011;-68
2023/12/19 00:14:21;;;;;;;37.47;25.75;;;1.10;99.90;;;;;;7377859;19;20012;-69
2023/12/19 00:16:51;;;;;;;31.75;25.38;;;1.20;99.90;;;;;;7378377;19;20006;-67
2023/12/19 00:19:24;;;;;;;34.42;25.02;;;1.20;99.90;;;;;;7378150;19;20007;-68
2023/12/19 00:21:54;;;;;;;34.85;24.80;;;1.20;99.90;;;;;;7378042;19;20024;-69
2023/12/19 00:24:24;;;;;;;32.25;23.45;;;1.20;99.90;;;;;;7373976;19;20006;-69
2023/12/19 00:26:54;;;;;;;34.45;24.83;;;1.20;99.90;;;;;;7378073;19;20021;-69
2023/12/19 00:29:24;;;;;;;37.95;24.17;;;1.20;99.90;;;;;;7374107;19;20010;-69
2023/12/19 00:31:54;;;;;;;33.17;24.38;;;1.10;99.90;;;;;;7378690;19;20010;-68
2023/12/19 00:34:27;;;;;;;31.23;24.13;;;1.10;99.90;;;;;;7378185;19;20036;-69
2023/12/19 00:36:57;;;;;;;34.58;24.73;;;1.10;99.90;;;;;;7373290;19;20082;-70
2023/12/19 00:39:27;;;;;;;33.47;24.02;;;1.10;99.90;;;;;;7376660;19;20045;-68
2023/12/19 00:41:58;;;;;;;36.05;25.40;;;1.20;99.90;;;;;;7376453;19;20018;-69
2023/12/19 00:44:28;;;;;;;32.65;24.98;;;1.10;99.90;;;;;;7376279;19;20003;-68
2023/12/19 00:46:58;;;;;;;36.40;25.48;;;1.10;99.90;;;;;;7376209;19;20014;-69
2023/12/19 00:49:30;;;;;;;35.03;24.17;;;1.00;99.90;;;;;;7376625;19;20459;-69
2023/12/19 00:52:02;;;;;;;33.28;23.55;;;1.00;99.90;;;;;;7376185;19;20017;-68
2023/12/19 00:54:32;;;;;;;33.03;23.42;;;0.90;99.90;;;;;;7376234;19;20050;-68
2023/12/19 00:57:03;;;;;;;33.13;24.88;;;0.90;99.90;;;;;;7376787;19;20022;-69
2023/12/19 00:59:33;;;;;;;37.85;25.38;;;0.80;99.90;;;;;;7375281;19;20002;-68
2023/12/19 01:02:03;;;;;;;32.95;24.42;;;0.90;99.90;;;;;;7375023;19;20010;-68
2023/12/19 01:04:39;;;;;;;36.75;24.40;;;0.90;99.90;;;;;;7375631;19;20085;-68
2023/12/19 01:07:30;;;;;;;34.67;24.13;;;1.00;99.90;;;;;;7373904;19;20038;-69
2023/12/19 01:10:20;;;;;;;31.50;22.77;;;1.00;99.90;;;;;;7376481;19;20087;-68
2023/12/19 01:12:50;;;;;;;32.17;23.02;;;0.90;99.90;;;;;;7376826;19;20393;-68
2023/12/19 01:15:22;;;;;;;29.58;21.92;;;0.90;99.90;;;;;;7376158;19;20017;-68
2023/12/19 01:17:52;;;;;;;29.98;22.60;;;0.90;99.90;;;;;;7382670;19;20017;-68
2023/12/19 01:20:25;;;;;;;30.65;22.17;;;0.90;99.90;;;;;;7383633;19;20340;-68
2023/12/19 01:22:55;;;;;;;32.58;21.98;;;0.80;99.90;;;;;;7384057;19;20476;-68
2023/12/19 01:25:25;;;;;;;31.88;22.55;;;0.80;99.90;;;;;;7378380;19;19999;-68
2023/12/19 01:27:55;;;;;;;32.55;21.83;;;0.70;99.90;;;;;;7383392;19;20013;-68
2023/12/19 01:30:25;;;;;;;29.73;21.83;;;0.60;99.90;;;;;;7380994;19;20100;-69
2023/12/19 01:32:55;;;;;;;31.50;21.85;;;0.60;99.90;;;;;;7378620;19;20497;-69
2023/12/19 01:35:28;;;;;;;30.77;23.15;;;0.60;99.90;;;;;;7381474;19;20491;-68
2023/12/19 01:37:58;;;;;;;33.55;23.23;;;0.50;99.90;;;;;;7376071;19;20017;-69
2023/12/19 01:40:31;;;;;;;31.88;21.05;;;0.50;99.90;;;;;;7384551;19;20014;-68
2023/12/19 01:43:02;;;;;;;30.98;21.77;;;0.40;99.90;;;;;;7381477;19;20021;-68
2023/12/19 01:45:32;;;;;;;31.58;22.42;;;0.40;99.90;;;;;;7381029;19;20506;-68
2023/12/19 01:48:02;;;;;;;32.22;21.90;;;0.30;99.90;;;;;;7380866;19;20018;-68
2023/12/19 01:50:35;;;;;;;31.75;22.15;;;0.30;99.90;;;;;;7379235;19;20083;-69
2023/12/19 01:53:06;;;;;;;33.03;22.45;;;0.30;99.90;;;;;;7381695;19;20086;-68
2023/12/19 01:55:36;;;;;;;28.42;21.23;;;0.30;99.90;;;;;;7381700;19;20021;-68
2023/12/19 01:58:07;;;;;;;35.83;23.27;;;0.30;99.90;;;;;;7381071;19;20022;-69
2023/12/19 02:00:37;;;;;;;29.08;21.52;;;0.40;99.90;;;;;;7381568;19;20047;-69
2023/12/19 02:03:08;;;;;;;31.55;22.33;;;0.30;99.90;;;;;;7382242;19;20021;-69
2023/12/19 02:05:43;;;;;;;30.83;22.60;;;0.30;99.90;;;;;;7380959;19;20014;-68
2023/12/19 02:08:13;;;;;;;31.45;22.08;;;0.30;99.90;;;;;;7380807;19;20021;-69
2023/12/19 02:10:44;;;;;;;30.10;21.95;;;0.40;99.90;;;;;;7381847;19;20002;-68
2023/12/19 02:13:14;;;;;;;35.85;22.30;;;0.40;99.90;;;;;;7382382;19;20015;-68
2023/12/19 02:15:45;;;;;;;29.48;21.83;;;0.40;99.90;;;;;;7383990;19;20411;-68
2023/12/19 02:18:16;;;;;;;35.15;22.25;;;0.40;99.90;;;;;;7380380;19;20014;-68
2023/12/19 02:20:49;;;;;;;31.23;21.90;;;0.30;99.90;;;;;;7378461;19;20018;-67
2023/12/19 02:23:21;;;;;;;30.15;21.05;;;0.20;99.90;;;;;;7381205;19;20032;-68
2023/12/19 02:25:52;;;;;;;34.38;22.23;;;0.20;99.90;;;;;;7380227;19;20379;-68
2023/12/19 02:28:22;;;;;;;32.10;20.75;;;0.10;99.90;;;;;;7379639;19;20608;-69
2023/12/19 02:30:52;;;;;;;27.70;20.60;;;0.10;99.90;;;;;;7380557;19;20073;-67
2023/12/19 02:33:22;;;;;;;30.88;20.42;;;0.30;99.90;;;;;;7381291;19;20015;-67
2023/12/19 02:35:53;;;;;;;26.45;20.77;;;0.30;99.90;;;;;;7381330;19;20016;-68
2023/12/19 02:38:25;;;;;;;26.65;18.88;;;0.30;99.90;;;;;;7378876;19;20014;-68
2023/12/19 02:40:55;;;;;;;23.42;18.00;;;0.30;99.90;;;;;;7381835;19;20090;-69
2023/12/19 02:43:25;;;;;;;27.35;19.20;;;0.40;99.90;;;;;;7381952;19;20014;-69
2023/12/19 02:45:55;;;;;;;25.45;18.40;;;0.50;99.90;;;;;;7382003;19;20039;-68
2023/12/19 02:48:25;;;;;;;28.63;19.65;;;0.50;99.90;;;;;;7379986;19;20011;-69
2023/12/19 02:50:55;;;;;;;26.98;19.23;;;0.50;99.90;;;;;;7382371;19;20015;-69
2023/12/19 02:53:29;;;;;;;31.40;21.58;;;0.40;99.90;;;;;;7380613;19;20006;-69
2023/12/19 02:55:59;;;;;;;42.03;26.38;;;0.30;99.90;;;;;;7380539;19;20015;-68
2023/12/19 02:58:30;;;;;;;48.05;27.67;;;0.20;99.90;;;;;;7376213;19;20044;-68
2023/12/19 03:01:00;;;;;;;43.45;26.27;;;0.10;99.90;;;;;;7381622;19;20417;-68
2023/12/19 03:03:30;;;;;;;41.55;27.00;;;0.10;99.90;;;;;;7381081;19;20050;-68
2023/12/19 03:06:00;;;;;;;39.17;25.38;;;0.00;99.90;;;;;;7377152;19;20014;-68
2023/12/19 03:08:33;;;;;;;38.92;27.02;;;0.00;99.90;;;;;;7380324;19;20006;-67
2023/12/19 03:11:03;;;;;;;39.30;24.98;;;-0.10;99.90;;;;;;7379022;19;20025;-68
2023/12/19 03:13:33;;;;;;;32.97;23.15;;;-0.10;99.90;;;;;;7378682;19;20022;-69
2023/12/19 03:16:03;;;;;;;38.90;25.88;;;-0.10;99.90;;;;;;7377603;19;20002;-68
2023/12/19 03:18:33;;;;;;;36.15;24.00;;;-0.10;99.90;;;;;;7378049;19;20014;-69
2023/12/19 03:21:04;;;;;;;35.67;25.00;;;-0.20;99.90;;;;;;7380694;19;20024;-68
2023/12/19 03:23:36;;;;;;;36.75;25.48;;;-0.20;99.90;;;;;;7379835;19;20031;-68
2023/12/19 03:26:06;;;;;;;35.65;25.70;;;-0.30;99.90;;;;;;7378622;19;20016;-68
2023/12/19 03:28:37;;;;;;;37.13;24.77;;;-0.20;99.90;;;;;;7379192;19;20031;-69
2023/12/19 03:31:07;;;;;;;34.35;23.15;;;-0.30;99.90;;;;;;7380026;19;20482;-68
2023/12/19 03:33:37;;;;;;;30.75;21.23;;;-0.20;99.90;;;;;;7378977;19;20007;-69
2023/12/19 03:36:08;;;;;;;28.80;21.50;;;-0.10;99.90;;;;;;7378339;19;20018;-69
2023/12/19 03:38:41;;;;;;;31.10;23.30;;;-0.10;99.90;;;;;;7377157;19;20011;-68
2023/12/19 03:41:11;;;;;;;29.48;23.48;;;-0.20;99.90;;;;;;7379478;19;20015;-68
2023/12/19 03:43:41;;;;;;;36.13;26.02;;;-0.20;99.90;;;;;;7379492;19;20030;-68
2023/12/19 03:46:11;;;;;;;34.80;25.15;;;-0.20;99.90;;;;;;7378489;19;20014;-67
2023/12/19 03:48:41;;;;;;;36.42;27.35;;;-0.20;99.90;;;;;;7377550;19;20018;-67
2023/12/19 03:51:11;;;;;;;33.72;23.83;;;-0.30;99.90;;;;;;7377247;19;20014;-67
2023/12/19 03:53:44;;;;;;;29.80;24.00;;;-0.30;99.90;;;;;;7377609;19;20031;-68
2023/12/19 03:56:14;;;;;;;31.27;23.48;;;-0.30;99.90;;;;;;7379322;19;20035;-68
2023/12/19 03:58:44;;;;;;;32.72;23.15;;;-0.30;99.90;;;;;;7377525;19;20015;-67
2023/12/19 04:01:17;;;;;;;26.85;20.42;;;-0.30;99.90;;;;;;7376165;19;20395;-67
2023/12/19 04:03:47;;;;;;;26.38;20.63;;;-0.20;99.90;;;;;;7378658;19;20035;-67
2023/12/19 04:06:18;;;;;;;27.23;19.55;;;-0.10;99.90;;;;;;7378652;19;20625;-67
2023/12/19 04:08:50;;;;;;;27.27;19.92;;;-0.10;99.90;;;;;;7377858;19;20021;-67
2023/12/19 04:11:20;;;;;;;25.88;19.55;;;-0.20;99.90;;;;;;7379282;19;20018;-68
2023/12/19 04:13:50;;;;;;;25.55;18.70;;;-0.30;99.90;;;;;;7377167;19;20011;-69
2023/12/19 04:16:20;;;;;;;25.40;19.50;;;-0.10;99.90;;;;;;7378098;19;20026;-68
2023/12/19 04:18:50;;;;;;;25.63;19.42;;;-0.10;99.90;;;;;;7376343;19;20015;-68
2023/12/19 04:21:20;;;;;;;27.83;21.30;;;-0.20;99.90;;;;;;7377393;19;20074;-69
2023/12/19 04:23:53;;;;;;;33.22;21.55;;;-0.30;99.90;;;;;;7378129;19;20006;-69
2023/12/19 04:26:23;;;;;;;28.65;20.85;;;-0.30;99.90;;;;;;7377557;19;20467;-68
2023/12/19 04:28:53;;;;;;;27.10;20.15;;;-0.30;99.90;;;;;;7376262;19;20010;-68
2023/12/19 04:31:23;;;;;;;28.75;21.40;;;-0.30;99.90;;;;;;7375357;19;20042;-68
2023/12/19 04:33:53;;;;;;;30.05;21.88;;;-0.30;99.90;;;;;;7377001;19;20032;-67
2023/12/19 04:36:28;;;;;;;27.38;20.90;;;-0.40;99.90;;;;;;7377848;19;20403;-67
2023/12/19 04:39:00;;;;;;;24.67;18.48;;;-0.40;99.90;;;;;;7376514;19;20497;-68
2023/12/19 04:41:30;;;;;;;26.92;18.02;;;-0.20;99.90;;;;;;7377873;19;20014;-68
2023/12/19 04:44:01;;;;;;;26.80;20.10;;;-0.30;99.90;;;;;;7376446;19;20094;-68
2023/12/19 04:46:31;;;;;;;31.05;23.75;;;-0.40;99.90;;;;;;7380075;19;20036;-68
2023/12/19 04:49:01;;;;;;;34.05;24.65;;;-0.40;99.90;;;;;;7379786;19;20018;-69
2023/12/19 04:51:31;;;;;;;34.55;24.85;;;-0.50;99.90;;;;;;7380823;19;20093;-68
2023/12/19 04:54:05;;;;;;;40.95;27.15;;;-0.50;99.90;;;;;;7379535;19;20014;-67
2023/12/19 04:56:35;;;;;;;33.40;24.20;;;-0.50;99.90;;;;;;7382169;19;20010;-68
2023/12/19 04:59:05;;;;;;;30.20;22.33;;;-0.50;99.90;;;;;;7382307;19;20018;-69
2023/12/19 05:01:39;;;;;;;33.13;22.60;;;-0.50;99.90;;;;;;7383275;19;20466;-68
2023/12/19 05:04:10;;;;;;;34.65;24.88;;;-0.60;99.90;;;;;;7383980;19;20026;-69
2023/12/19 05:06:40;;;;;;;44.38;30.70;;;-0.70;99.90;;;;;;7382420;19;20011;-67
2023/12/19 05:09:13;;;;;;;40.70;28.85;;;-0.60;99.90;;;;;;7382178;19;20006;-68
2023/12/19 05:11:44;;;;;;;41.90;29.60;;;-0.70;99.90;;;;;;7383488;19;20041;-68
2023/12/19 05:14:14;;;;;;;38.53;28.13;;;-0.80;99.90;;;;;;7382979;19;20010;-69
2023/12/19 05:16:44;;;;;;;38.10;26.10;;;-0.90;99.90;;;;;;7383452;19;20027;-68
2023/12/19 05:19:14;;;;;;;38.33;26.95;;;-0.90;99.90;;;;;;7383043;19;20011;-67
2023/12/19 05:21:44;;;;;;;37.75;26.40;;;-0.90;99.90;;;;;;7382702;19;20773;-68
2023/12/19 05:24:17;;;;;;;37.78;25.35;;;-0.80;99.90;;;;;;7383767;19;20366;-68
2023/12/19 05:26:47;;;;;;;36.25;25.88;;;-0.80;99.90;;;;;;7382654;19;20497;-66
2023/12/19 05:29:17;;;;;;;32.85;24.20;;;-0.80;99.90;;;;;;7383312;19;20402;-67
2023/12/19 05:31:47;;;;;;;29.85;23.08;;;-0.70;99.90;;;;;;7380828;19;20011;-68
2023/12/19 05:34:17;;;;;;;32.63;22.85;;;-0.60;99.90;;;;;;7379723;19;21020;-68
2023/12/19 05:36:48;;;;;;;30.80;21.63;;;-0.60;99.90;;;;;;7379716;19;20007;-68
2023/12/19 05:39:21;;;;;;;30.85;21.90;;;-0.70;99.90;;;;;;7378455;19;20014;-67
2023/12/19 05:41:51;;;;;;;33.22;24.63;;;-0.60;99.90;;;;;;7379991;19;20027;-68
2023/12/19 05:44:21;;;;;;;29.88;22.17;;;-0.70;99.90;;;;;;7379291;19;20018;-68
2023/12/19 05:46:52;;;;;;;28.75;21.52;;;-0.70;99.90;;;;;;7376553;19;20035;-68
2023/12/19 05:49:23;;;;;;;28.17;19.85;;;-0.80;99.90;;;;;;7380078;19;20010;-68
2023/12/19 05:51:53;;;;;;;29.48;20.02;;;-0.80;99.90;;;;;;7380258;19;20012;-67
2023/12/19 05:54:25;;;;;;;31.35;21.52;;;-0.60;99.90;;;;;;7379421;19;20018;-69
2023/12/19 05:56:56;;;;;;;31.27;21.35;;;-0.50;99.90;;;;;;7379445;19;20026;-68
2023/12/19 05:59:26;;;;;;;30.70;21.33;;;-0.60;99.90;;;;;;7378961;19;20421;-68
2023/12/19 06:01:56;;;;;;;26.40;20.90;;;-0.60;99.90;;;;;;7380493;19;20022;-67
2023/12/19 06:04:25;;;;;;;30.77;22.38;;;-0.60;99.90;;;;;;7380480;19;20368;-68
2023/12/19 06:06:56;;;;;;;33.33;23.42;;;-0.70;99.90;;;;;;7381541;19;20110;-67
2023/12/19 06:09:28;;;;;;;32.83;23.30;;;-0.80;99.90;;;;;;7380544;19;20506;-68
2023/12/19 06:11:58;;;;;;;35.47;25.38;;;-0.80;99.90;;;;;;7380474;19;20014;-68
2023/12/19 06:14:28;;;;;;;39.33;28.50;;;-0.90;99.90;;;;;;7380108;19;20027;-68
2023/12/19 06:16:58;;;;;;;39.67;28.27;;;-0.90;99.90;;;;;;7380957;19;20034;-67
2023/12/19 06:19:28;;;;;;;38.63;29.10;;;-0.90;99.90;;;;;;7381402;19;20025;-69
2023/12/19 06:21:58;;;;;;;35.75;25.67;;;-1.00;99.90;;;;;;7381129;19;20014;-67
2023/12/19 06:24:31;;;;;;;42.45;29.35;;;-1.10;99.90;;;;;;7382033;19;20011;-68
2023/12/19 06:27:01;;;;;;;32.20;24.40;;;-1.10;99.90;;;;;;7381309;19;20051;-67
2023/12/19 06:29:31;;;;;;;44.58;26.77;;;-1.10;99.90;;;;;;7380412;19;20025;-67
2023/12/19 06:32:01;;;;;;;36.15;23.65;;;-1.10;99.90;;;;;;7380165;19;20043;-67
2023/12/19 06:34:34;;;;;;;37.72;26.42;;;-1.20;99.90;;;;;;7381645;19;20034;-67
2023/12/19 06:37:04;;;;;;;38.30;28.10;;;-1.20;99.90;;;;;;7380522;19;20115;-67
2023/12/19 06:39:37;;;;;;;39.53;26.45;;;-1.30;99.90;;;;;;7379452;19;20526;-67
2023/12/19 06:42:08;;;;;;;34.58;23.48;;;-1.30;99.90;;;;;;7379298;19;20041;-67
2023/12/19 06:44:38;;;;;;;34.40;23.00;;;-1.10;99.90;;;;;;7378825;19;20086;-67
2023/12/19 06:47:08;;;;;;;36.97;26.02;;;-1.20;99.90;;;;;;7380344;19;20019;-67
2023/12/19 06:49:38;;;;;;;39.20;25.65;;;-1.10;99.90;;;;;;7379701;19;20039;-67
2023/12/19 06:52:09;;;;;;;33.30;21.05;;;-1.10;99.90;;;;;;7379581;19;20013;-67
2023/12/19 06:54:41;;;;;;;33.75;24.92;;;-1.00;99.90;;;;;;7378027;19;20007;-67
2023/12/19 06:57:11;;;;;;;33.55;25.88;;;-0.90;99.90;;;;;;7378092;19;20006;-67
2023/12/19 06:59:42;;;;;;;35.25;23.23;;;-0.90;99.90;;;;;;7379622;19;20014;-67
2023/12/19 07:02:12;;;;;;;34.20;24.27;;;-0.80;99.90;;;;;;7378082;19;20013;-67
2023/12/19 07:04:42;;;;;;;37.65;24.42;;;-0.60;99.90;;;;;;7378937;19;20007;-67
2023/12/19 07:07:12;;;;;;;35.17;24.08;;;-0.50;99.90;;;;;;7376992;19;20127;-67
2023/12/19 07:09:45;;;;;;;33.85;23.85;;;-0.40;99.90;;;;;;7378657;19;20030;-68
2023/12/19 07:12:15;;;;;;;33.00;23.50;;;-0.40;99.90;;;;;;7374901;19;20731;-68
2023/12/19 07:14:45;;;;;;;36.22;22.23;;;-0.40;99.90;;;;;;7377033;19;20014;-67
2023/12/19 07:17:15;;;;;;;31.02;22.35;;;-0.40;99.90;;;;;;7375999;19;20006;-68
2023/12/19 07:19:46;;;;;;;33.83;22.77;;;-0.40;99.90;;;;;;7380778;19;20396;-67
2023/12/19 07:22:16;;;;;;;29.80;20.38;;;-0.40;99.90;;;;;;7377629;19;20010;-68
2023/12/19 07:24:49;;;;;;;30.83;21.42;;;-0.40;99.90;;;;;;7376287;19;20006;-70
2023/12/19 07:27:19;;;;;;;30.05;21.08;;;-0.40;99.90;;;;;;7376353;19;20090;-67
2023/12/19 07:29:49;;;;;;;29.00;20.45;;;-0.40;99.90;;;;;;7376682;19;20036;-68
2023/12/19 07:32:19;;;;;;;31.45;21.55;;;-0.40;99.90;;;;;;7378183;19;20018;-67
2023/12/19 07:34:49;;;;;;;30.58;20.77;;;-0.40;99.90;;;;;;7377186;19;20006;-70
2023/12/19 07:37:19;;;;;;;32.03;21.58;;;-0.30;99.90;;;;;;7379597;19;20367;-68
2023/12/19 07:39:51;;;;;;;29.73;20.42;;;-0.30;99.90;;;;;;7378947;19;20020;-67
2023/12/19 07:42:22;;;;;;;30.17;20.42;;;-0.30;99.90;;;;;;7374226;19;20014;-67
2023/12/19 07:44:53;;;;;;;28.65;20.98;;;-0.30;99.90;;;;;;7375836;19;20096;-67
2023/12/19 07:47:23;;;;;;;29.17;21.05;;;-0.30;99.90;;;;;;7376209;19;20037;-67
2023/12/19 07:49:53;;;;;;;31.45;22.08;;;-0.30;99.90;;;;;;7377986;19;20006;-67
2023/12/19 07:52:23;;;;;;;29.83;21.42;;;-0.30;99.90;;;;;;7377592;19;20007;-67
2023/12/19 07:54:58;;;;;;;29.17;20.85;;;-0.30;99.90;;;;;;7375928;19;20643;-67
2023/12/19 07:57:29;;;;;;;28.00;21.20;;;-0.20;99.90;;;;;;7376289;19;20002;-68
2023/12/19 07:59:59;;;;;;;31.58;19.88;;;-0.20;99.90;;;;;;7375400;19;20045;-67
2023/12/19 08:02:30;;;;;;;32.80;20.92;;;-0.20;99.90;;;;;;7376658;19;20010;-67
2023/12/19 08:05:03;;;;;;;31.35;20.67;;;-0.20;99.90;;;;;;7376079;19;20028;-67
2023/12/19 08:07:35;;;;;;;30.45;20.90;;;-0.10;99.90;;;;;;7377091;19;20031;-67
2023/12/19 08:10:08;;;;;;;31.05;21.92;;;-0.10;99.90;;;;;;7376175;19;20023;-67
2023/12/19 08:12:39;;;;;;;30.45;19.88;;;-0.10;99.90;;;;;;7376110;19;20010;-67
2023/12/19 08:15:10;;;;;;;29.20;19.77;;;0.00;99.90;;;;;;7376484;19;20010;-68
2023/12/19 08:17:41;;;;;;;29.95;19.35;;;0.00;99.90;;;;;;7375326;19;20002;-66
2023/12/19 08:20:15;;;;;;;27.42;19.15;;;0.10;99.90;;;;;;7375405;19;20336;-67
2023/12/19 08:22:45;;;;;;;28.70;18.33;;;0.20;99.90;;;;;;7376347;19;20382;-66
2023/12/19 08:25:18;;;;;;;27.88;19.33;;;0.30;99.90;;;;;;7374251;19;20031;-67
2023/12/19 08:27:48;;;;;;;27.40;18.35;;;0.30;99.90;;;;;;7375927;19;20122;-68
2023/12/19 08:30:18;;;;;;;26.08;16.73;;;0.40;99.90;;;;;;7377564;19;20094;-67
2023/12/19 08:32:48;;;;;;;27.85;19.25;;;0.40;99.90;;;;;;7374970;19;20006;-68
2023/12/19 08:35:18;;;;;;;25.10;17.27;;;0.50;93.40;;;;;;7377249;19;20086;-67
2023/12/19 08:37:48;;;;;;;25.30;17.38;;;0.60;92.40;;;;;;7375993;19;20496;-69
2023/12/19 08:40:22;;;;;;;27.25;17.90;;;0.60;78.80;;;;;;7374593;19;20372;-68
2023/12/19 08:42:53;;;;;;;26.73;17.17;;;0.60;71.50;;;;;;7373924;19;20023;-68
2023/12/19 08:45:24;;;;;;;23.73;15.60;;;0.70;64.00;;;;;;7377239;19;20147;-67
2023/12/19 08:47:55;;;;;;;23.63;16.38;;;0.70;53.40;;;;;;7373130;19;20014;-68
2023/12/19 08:50:25;;;;;;;21.35;15.38;;;0.80;49.80;;;;;;7377681;19;20031;-67
2023/12/19 08:52:55;;;;;;;24.63;15.65;;;0.80;33.40;;;;;;7376376;19;20014;-68
2023/12/19 08:55:30;;;;;;;22.17;15.43;;;0.90;37.50;;;;;;7375868;19;20486;-68
2023/12/19 08:58:00;;;;;;;23.98;14.98;;;1.00;31.40;;;;;;7371639;19;20018;-68
2023/12/19 09:00:30;;;;;;;20.77;14.35;;;1.00;8.80;;;;;;7374301;19;20006;-68
2023/12/19 09:03:00;;;;;;;20.63;13.95;;;1.10;5.40;;;;;;7375126;19;20104;-68
2023/12/19 09:05:30;;;;;;;21.00;13.75;;;1.20;1.00;;;;;;7375415;19;20021;-68
2023/12/19 09:08:00;;;;;;;20.63;13.57;;;1.10;1.00;;;;;;7373980;19;20015;-68
2023/12/19 09:10:33;;;;;;;20.50;13.68;;;1.20;1.00;;;;;;7374510;19;20011;-68
2023/12/19 09:13:04;;;;;;;18.50;13.13;;;1.20;1.00;;;;;;7373278;19;20031;-67
2023/12/19 09:15:35;;;;;;;19.77;13.10;;;1.30;1.00;;;;;;7375566;19;20003;-67
2023/12/19 09:18:05;;;;;;;18.98;12.70;;;1.30;1.00;;;;;;7374597;19;20013;-67
2023/12/19 09:20:35;;;;;;;19.17;12.95;;;1.20;1.00;;;;;;7375805;19;20027;-69
2023/12/19 09:23:06;;;;;;;18.92;12.82;;;1.30;1.00;;;;;;7376631;19;20030;-67
2023/12/19 09:25:39;;;;;;;19.23;13.45;;;1.50;1.00;;;;;;7375147;19;20015;-69
2023/12/19 09:28:09;;;;;;;22.38;14.32;;;1.60;1.00;;;;;;7374054;19;20014;-68
2023/12/19 09:30:39;;;;;;;20.30;13.30;;;1.70;1.00;;;;;;7374072;19;20090;-68
2023/12/19 09:33:10;;;;;;;20.17;13.68;;;1.80;1.00;;;;;;7374816;19;20531;-69
2023/12/19 09:35:40;;;;;;;19.00;13.30;;;2.00;1.00;;;;;;7374120;19;20010;-68
2023/12/19 09:38:11;;;;;;;19.15;13.65;;;1.80;1.00;;;;;;7379309;19;20018;-68
2023/12/19 09:40:44;;;;;;;18.27;13.05;;;1.40;1.00;;;;;;7381532;19;20003;-68
2023/12/19 09:43:14;;;;;;;17.75;12.25;;;1.60;1.00;;;;;;7381966;19;20011;-68
2023/12/19 09:45:44;;;;;;;19.58;12.90;;;1.40;1.00;;;;;;7381620;19;20360;-68
2023/12/19 09:48:16;;;;;;;19.55;12.73;;;1.50;1.00;;;;;;7382425;19;20006;-68
2023/12/19 09:50:49;;;;;;;18.77;13.05;;;1.50;1.00;;;;;;7382183;19;20483;-69
2023/12/19 09:53:20;;;;;;;18.42;12.80;;;1.50;1.00;;;;;;7381168;19;20011;-68
2023/12/19 09:55:57;;;;;;;20.92;13.02;;;1.40;1.00;;;;;;7381158;19;20086;-67
2023/12/19 09:58:28;;;;;;;20.83;13.57;;;1.40;1.00;;;;;;7380723;19;20010;-68
2023/12/19 10:01:00;;;;;;;17.83;13.15;;;1.40;1.00;;;;;;7379125;19;20795;-68
2023/12/19 10:03:31;;;;;;;20.13;13.30;;;1.40;1.00;;;;;;7382405;19;20014;-68
2023/12/19 10:06:01;;;;;;;20.35;12.48;;;1.50;1.00;;;;;;7379180;19;20677;-68
2023/12/19 10:08:33;;;;;;;21.23;13.07;;;1.60;1.00;;;;;;7380847;19;20463;-68
2023/12/19 10:11:07;;;;;;;19.20;11.98;;;1.30;1.00;;;;;;7376396;19;20021;-68
2023/12/19 10:13:38;;;;;;;;;;;1.20;1.00;;;;;;7379956;19;20133;-68
2023/12/19 10:16:11;;;;;;;17.02;12.02;;;1.20;1.00;;;;;;7379269;19;19951;-69
2023/12/19 10:19:01;;;;;;;19.92;13.35;;;1.10;1.00;;;;;;7379470;19;20014;-68
2023/12/19 10:21:32;;;;;;;20.65;12.63;;;1.00;1.00;;;;;;7382409;19;20011;-68
2023/12/19 10:24:11;;;;;;;23.58;14.13;;;1.00;1.00;;;;;;7379758;19;20014;-69
2023/12/19 10:26:45;;;;;;;20.27;13.32;;;1.10;1.00;;;;;;7380799;19;20015;-69
2023/12/19 10:29:25;;;;;;;20.75;14.10;;;1.00;1.00;;;;;;7379864;19;20010;-69
2023/12/19 10:31:55;;;;;;;20.80;12.63;;;1.10;1.00;;;;;;7379488;19;20471;-68
2023/12/19 10:34:25;;;;;;;20.65;14.00;;;1.00;1.00;;;;;;7380007;19;20502;-67
2023/12/19 10:36:56;;;;;;;20.60;14.00;;;1.10;1.00;;;;;;7379940;19;20412;-68
2023/12/19 10:39:26;;;;;;;19.27;13.13;;;1.10;1.00;;;;;;7379599;19;20003;-68
2023/12/19 10:42:06;;;;;;;19.45;13.35;;;1.00;1.00;;;;;;7379547;19;20030;-68
2023/12/19 10:44:36;;;;;;;18.35;12.50;;;1.10;1.00;;;;;;7379745;19;20014;-67
2023/12/19 10:47:08;;;;;;;19.15;13.05;;;1.10;1.00;;;;;;7375468;19;20017;-67
2023/12/19 10:49:38;;;;;;;17.38;11.90;;;1.20;1.00;;;;;;7380138;19;20497;-67
2023/12/19 10:52:11;;;;;;;18.90;12.38;;;1.20;1.00;;;;;;7377599;19;20080;-68
2023/12/19 10:54:42;;;;;;;18.73;13.05;;;1.20;1.00;;;;;;7379425;19;20014;-68
2023/12/19 10:57:18;;;;;;;21.48;12.90;;;1.30;1.00;;;;;;7379828;19;20378;-66
2023/12/19 10:59:56;;;;;;;15.32;11.45;;;1.30;1.00;;;;;;7374493;19;20007;-70
2023/12/19 11:02:37;;;;;;;19.60;12.73;;;1.20;1.00;;;;;;7378587;19;20010;-68
2023/12/19 11:05:25;;;;;;;19.63;13.10;;;1.40;1.00;;;;;;7379546;19;20011;-68
2023/12/19 11:08:00;;;;;;;22.17;13.30;;;1.80;1.00;;;;;;6868038;19;2004029;-69
2023/12/19 11:10:34;;;;;;;15.85;11.48;;;2.00;1.00;;;;;;7378553;19;20014;-69
2023/12/19 11:13:07;;;;;;;18.02;12.05;;;1.80;1.00;;;;;;7378496;19;20106;-67
2023/12/19 11:15:41;;;;;;;17.35;12.05;;;1.90;1.00;;;;;;7378782;19;20006;-67
2023/12/19 11:18:20;;;;;;;18.40;11.30;;;2.00;1.00;;;;;;7380223;19;20077;-68
2023/12/19 11:21:00;;;;;;;16.80;11.63;;;2.10;1.00;;;;;;7372929;19;20014;-68
2023/12/19 11:23:47;;;;;;;18.58;10.90;;;2.20;1.00;;;;;;7378463;19;20010;-67
2023/12/19 11:26:22;;;;;;;18.13;11.32;;;2.30;1.00;;;;;;7376353;19;20014;-68
2023/12/19 11:28:55;;;;;;;15.77;10.50;;;2.50;1.00;;;;;;7377709;19;20014;-67
2023/12/19 11:31:36;;;;;;;15.70;10.55;;;2.50;1.00;;;;;;7378952;19;20039;-68
2023/12/19 11:34:24;;;;;;;17.63;11.30;;;2.40;1.00;;;;;;7379446;19;20014;-67
2023/12/19 11:37:06;;;;;;;14.88;10.57;;;2.50;1.00;;;;;;6866677;19;2004806;-68
2023/12/19 11:39:43;;;;;;;17.15;11.25;;;2.50;1.00;;;;;;7378397;19;20104;-68
2023/12/19 11:42:45;;;;;;;15.70;10.43;;;2.90;1.00;;;;;;7377884;19;20483;-68
2023/12/19 11:45:40;;;;;;;13.00;9.48;;;3.00;1.00;;;;;;6764338;19;2003967;-69
2023/12/19 11:48:40;;;;;;;13.32;8.88;;;2.90;1.00;;;;;;7377763;19;20015;-68
2023/12/19 11:51:14;;;;;;;13.10;9.23;;;3.30;1.00;;;;;;6868457;19;2004906;-69
2023/12/19 11:53:44;;;;;;;13.68;10.02;;;3.00;1.00;;;;;;7372008;19;20023;-72
2023/12/19 11:56:15;;;;;;;12.43;8.90;;;3.30;1.00;;;;;;7379906;19;20018;-67
2023/12/19 11:58:49;;;;;;;13.35;9.50;;;3.00;1.00;;;;;;7375445;19;20034;-68
2023/12/19 12:01:23;;;;;;;14.95;8.68;;;2.80;1.00;;;;;;7376632;19;20105;-67
2023/12/19 12:04:05;;;;;;;11.80;8.80;;;2.70;1.00;;;;;;7378118;19;20018;-69
2023/12/19 12:06:35;;;;;;;13.00;9.25;;;2.60;1.00;;;;;;7377689;19;20022;-68
2023/12/19 12:09:06;;;;;;;13.40;9.43;;;2.70;1.00;;;;;;7376365;19;20023;-67
2023/12/19 12:11:51;;;;;;;12.18;8.63;;;2.80;1.00;;;;;;7377421;19;20444;-68
2023/12/19 12:14:22;;;;;;;12.65;8.05;;;2.70;1.00;;;;;;7370419;19;20022;-67
2023/12/19 12:16:55;;;;;;;11.48;8.95;;;2.70;1.00;;;;;;7377370;19;20011;-67
2023/12/19 12:19:26;;;;;;;13.50;8.52;;;2.50;1.00;;;;;;7377509;19;20011;-68
2023/12/19 12:22:00;;;;;;;12.65;9.00;;;2.60;1.00;;;;;;7375954;19;20062;-67
2023/12/19 12:24:30;;;;;;;11.57;8.30;;;2.70;1.00;;;;;;7374173;19;20010;-68
2023/12/19 12:27:11;;;;;;;13.57;8.88;;;2.50;1.00;;;;;;7376010;19;20006;-69
2023/12/19 12:29:43;;;;;;;11.25;9.02;;;2.50;1.00;;;;;;7377217;19;20011;-69
2023/12/19 12:32:15;;;;;;;13.60;10.05;;;2.70;1.00;;;;;;7372657;19;20455;-69
2023/12/19 12:34:46;;;;;;;12.38;9.10;;;2.60;1.00;;;;;;7376358;19;20014;-70
2023/12/19 12:37:18;;;;;;;12.95;9.77;;;2.60;1.00;;;;;;7378443;19;20013;-68
2023/12/19 12:39:48;;;;;;;11.18;8.65;;;2.60;1.00;;;;;;7376661;19;20015;-68
2023/12/19 12:42:23;;;;;;;14.88;10.07;;;2.60;1.00;;;;;;7375732;19;20489;-68
2023/12/19 12:45:02;;;;;;;13.18;9.57;;;2.60;1.00;;;;;;7373273;19;20011;-67
2023/12/19 12:47:39;;;;;;;12.60;9.10;;;2.50;1.00;;;;;;7373135;19;20006;-68
2023/12/19 12:50:10;;;;;;;14.35;9.75;;;2.50;1.00;;;;;;7375265;19;20026;-68
2023/12/19 12:52:42;;;;;;;12.05;9.10;;;2.70;1.00;;;;;;7375465;19;20570;-69
2023/12/19 12:55:13;;;;;;;12.30;8.88;;;2.50;1.00;;;;;;7374435;19;20011;-68
2023/12/19 12:57:43;;;;;;;16.48;11.88;;;2.50;1.00;;;;;;7375291;19;20074;-68
2023/12/19 13:00:14;;;;;;;15.23;10.25;;;2.60;1.00;;;;;;7374713;19;20119;-69